Time;durP1;ratioP1;P1;durP2;ratioP2;P2;SDS_P1;SDS_P2;PMS_P1;PMS_P2;Temp;Humidity;BMP_temperature;BMP_pressure;BME280_temperature;BME280_humidity;BME280_pressure;Samples;Min_cycle;Max_cycle;Signal;HPM_P1;HPM_P2
2024/02/29 00:00:15;;;;;;;69.47;39.18;;;;;;;7.36;100.00;100886.60;1755111;81;27422;-64
2024/02/29 00:02:43;;;;;;;41.63;23.10;;;;;;;7.38;100.00;100891.72;1755131;81;25770;-67
2024/02/29 00:05:11;;;;;;;41.90;21.37;;;;;;;7.40;100.00;100897.63;1755196;81;25452;-67
2024/02/29 00:07:41;;;;;;;43.02;23.07;;;;;;;7.40;100.00;100901.66;1755177;81;25486;-67
2024/02/29 00:10:09;;;;;;;38.83;20.70;;;;;;;7.38;100.00;100895.75;1755148;81;25437;-66
2024/02/29 00:12:38;;;;;;;40.45;22.55;;;;;;;7.37;100.00;100894.95;1753796;81;25793;-66
2024/02/29 00:15:07;;;;;;;41.70;22.25;;;;;;;7.35;100.00;100897.09;1754393;81;25844;-67
2024/02/29 00:17:34;;;;;;;39.80;23.02;;;;;;;7.33;100.00;100896.56;1760026;81;25662;-66
2024/02/29 00:20:00;;;;;;;35.83;20.25;;;;;;;7.32;100.00;100899.00;1765001;81;25548;-67
2024/02/29 00:22:26;;;;;;;36.15;20.10;;;;;;;7.31;100.00;100896.03;1765103;81;25424;-66
2024/02/29 00:24:53;;;;;;;39.92;20.88;;;;;;;7.28;100.00;100888.50;1765155;81;27825;-66
2024/02/29 00:27:19;;;;;;;37.10;21.37;;;;;;;7.27;100.00;100894.95;1764959;80;25942;-66
2024/02/29 00:29:45;;;;;;;38.30;20.90;;;;;;;7.26;100.00;100897.39;1764826;81;25560;-66
2024/02/29 00:32:13;;;;;;;38.30;21.02;;;;;;;7.24;100.00;100897.66;1765031;81;26308;-66
2024/02/29 00:34:39;;;;;;;41.63;22.27;;;;;;;7.22;100.00;100893.61;1765118;81;25451;-66
2024/02/29 00:37:07;;;;;;;42.45;22.73;;;;;;;7.23;100.00;100889.85;1765057;81;27688;-66
2024/02/29 00:39:33;;;;;;;43.90;21.62;;;;;;;7.24;100.00;100891.48;1764930;81;26061;-66
2024/02/29 00:41:59;;;;;;;44.15;22.37;;;;;;;7.23;100.00;100884.47;1765050;81;25630;-66
2024/02/29 00:44:26;;;;;;;45.05;22.02;;;;;;;7.23;100.00;100891.20;1764998;81;26464;-67
2024/02/29 00:46:52;;;;;;;43.40;22.80;;;;;;;7.22;100.00;100893.09;1765072;80;25638;-66
2024/02/29 00:49:18;;;;;;;42.75;21.42;;;;;;;7.23;100.00;100884.47;1765112;81;28048;-66
2024/02/29 00:51:45;;;;;;;42.40;21.77;;;;;;;7.21;100.00;100888.78;1765153;81;25588;-66
2024/02/29 00:54:14;;;;;;;44.03;23.55;;;;;;;7.21;100.00;100893.36;1765246;81;25461;-67
2024/02/29 00:56:40;;;;;;;45.70;23.25;;;;;;;7.20;100.00;100895.25;1765231;80;25586;-66
2024/02/29 00:59:06;;;;;;;43.80;23.02;;;;;;;7.19;100.00;100895.52;1765232;80;25389;-66
2024/02/29 01:01:33;;;;;;;46.30;23.75;;;;;;;7.19;100.00;100902.25;1765215;81;27661;-66
2024/02/29 01:03:59;;;;;;;46.60;22.62;;;;;;;7.19;100.00;100900.36;1765141;81;25657;-66
2024/02/29 01:06:25;;;;;;;42.10;22.45;;;;;;;7.18;100.00;100896.04;1765168;81;25605;-66
2024/02/29 01:08:53;;;;;;;44.00;23.57;;;;;;;7.19;100.00;100901.70;1765197;81;25625;-67
2024/02/29 01:11:19;;;;;;;46.95;24.00;;;;;;;7.22;100.00;100893.61;1765268;81;25449;-67
2024/02/29 01:13:46;;;;;;;52.38;26.87;;;;;;;7.24;100.00;100891.48;1765227;81;26734;-68
2024/02/29 01:16:12;;;;;;;105.10;54.35;;;;;;;7.26;100.00;100896.05;1765133;81;25565;-63
2024/02/29 01:18:40;;;;;;;62.93;36.45;;;;;;;7.27;100.00;100889.56;1765160;81;25499;-65
2024/02/29 01:21:07;;;;;;;46.45;24.20;;;;;;;7.33;100.00;100892.52;1765172;81;25895;-65
2024/02/29 01:23:33;;;;;;;44.98;22.95;;;;;;;7.36;100.00;100900.61;1765321;81;25358;-65
2024/02/29 01:25:59;;;;;;;41.63;22.13;;;;;;;7.36;100.00;100895.23;1765159;80;27972;-65
2024/02/29 01:28:25;;;;;;;42.50;22.15;;;;;;;7.35;100.00;100903.81;1765174;81;25550;-65
2024/02/29 01:30:52;;;;;;;41.85;21.10;;;;;;;7.35;100.00;100903.81;1765174;81;25630;-65
2024/02/29 01:33:18;;;;;;;34.23;18.40;;;;;;;7.36;100.00;100911.37;1765160;81;25858;-65
2024/02/29 01:35:44;;;;;;;34.98;18.67;;;;;;;7.35;100.00;100908.41;1765211;81;25460;-65
2024/02/29 01:38:10;;;;;;;37.63;20.55;;;;;;;7.35;100.00;100912.44;1765120;81;27326;-66
2024/02/29 01:40:39;;;;;;;36.28;19.77;;;;;;;7.34;100.00;100912.98;1765111;81;25667;-66
2024/02/29 01:43:05;;;;;;;42.25;20.05;;;;;;;7.32;100.00;100915.67;1765166;80;25388;-65
2024/02/29 01:45:32;;;;;;;38.58;19.85;;;;;;;7.29;100.00;100915.14;1765138;81;25903;-66
2024/02/29 01:48:00;;;;;;;36.35;19.10;;;;;;;7.28;100.00;100918.89;1765226;81;25652;-65
2024/02/29 01:50:29;;;;;;;36.25;18.32;;;;;;;7.28;100.00;100910.83;1764647;81;27337;-65
2024/02/29 01:52:56;;;;;;;37.38;18.70;;;;;;;7.28;100.00;100910.03;1763867;81;25748;-65
2024/02/29 01:55:24;;;;;;;36.98;19.77;;;;;;;7.27;100.00;100907.05;1764716;81;25597;-65
2024/02/29 01:57:52;;;;;;;37.15;19.52;;;;;;;7.29;100.00;100902.23;1765130;81;25644;-67
2024/02/29 02:00:20;;;;;;;37.30;18.98;;;;;;;7.30;100.00;100903.83;1765172;81;25618;-67
2024/02/29 02:02:46;;;;;;;38.15;19.92;;;;;;;7.31;100.00;100899.27;1765114;81;27325;-67
2024/02/29 02:05:14;;;;;;;34.40;18.10;;;;;;;7.32;100.00;100903.56;1765060;81;25818;-67
2024/02/29 02:07:45;;;;;;;35.17;18.82;;;;;;;7.33;100.00;100903.84;1765144;81;25577;-66
2024/02/29 02:10:12;;;;;;;36.10;18.45;;;;;;;7.32;100.00;100907.59;1765010;81;25532;-66
2024/02/29 02:12:38;;;;;;;33.95;18.45;;;;;;;7.30;100.00;100911.91;1765186;81;25444;-66
2024/02/29 02:15:08;;;;;;;35.08;18.55;;;;;;;7.30;100.00;100913.25;1765116;81;27319;-67
2024/02/29 02:17:35;;;;;;;33.83;19.27;;;;;;;7.29;100.00;100915.14;1765179;80;25461;-67
2024/02/29 02:20:07;;;;;;;28.35;17.27;;;;;;;7.30;100.00;100918.63;1765131;81;25552;-67
2024/02/29 02:22:33;;;;;;;31.93;17.95;;;;;;;7.29;100.00;100908.96;1765178;81;26104;-67
2024/02/29 02:25:00;;;;;;;32.30;18.55;;;;;;;7.29;100.00;100910.31;1765157;81;25621;-67
2024/02/29 02:27:27;;;;;;;33.05;17.77;;;;;;;7.26;100.00;100904.91;1765142;81;28431;-66
2024/02/29 02:29:53;;;;;;;35.50;19.27;;;;;;;7.25;100.00;100903.31;1765056;81;25564;-65
2024/02/29 02:32:23;;;;;;;30.70;18.32;;;;;;;7.27;100.00;100909.75;1765149;81;25466;-66
2024/02/29 02:34:49;;;;;;;30.57;17.12;;;;;;;7.26;100.00;100910.30;1765093;81;25670;-66
2024/02/29 02:37:15;;;;;;;33.08;18.15;;;;;;;7.29;100.00;100913.00;1765125;81;25446;-66
2024/02/29 02:39:43;;;;;;;33.88;17.65;;;;;;;7.30;100.00;100909.21;1765099;81;28388;-66
2024/02/29 02:42:10;;;;;;;30.77;17.50;;;;;;;7.29;100.00;100902.23;1765066;81;25594;-66
2024/02/29 02:44:37;;;;;;;35.33;18.15;;;;;;;7.29;100.00;100910.31;1765143;81;25417;-67
2024/02/29 02:47:05;;;;;;;33.73;17.52;;;;;;;7.31;100.00;100904.66;1765074;81;25935;-66
2024/02/29 02:49:31;;;;;;;34.50;17.30;;;;;;;7.31;100.00;100914.08;1765146;81;25584;-66
2024/02/29 02:51:58;;;;;;;31.17;17.10;;;;;;;7.31;100.00;100914.08;1765141;81;27939;-67
2024/02/29 02:54:24;;;;;;;32.30;17.62;;;;;;;7.29;100.00;100917.03;1765036;81;25408;-66
2024/02/29 02:56:51;;;;;;;32.13;17.05;;;;;;;7.28;100.00;100914.06;1765145;80;25540;-66
2024/02/29 02:59:19;;;;;;;33.15;18.10;;;;;;;7.28;100.00;100916.75;1765053;81;26095;-67
2024/02/29 03:01:45;;;;;;;33.92;18.17;;;;;;;7.26;100.00;100913.53;1765156;80;25406;-66
2024/02/29 03:04:12;;;;;;;29.82;16.80;;;;;;;7.24;100.00;100911.11;1765084;80;28368;-66
2024/02/29 03:06:39;;;;;;;34.20;18.07;;;;;;;7.23;100.00;100912.72;1765106;81;25599;-65
2024/02/29 03:09:07;;;;;;;31.68;17.17;;;;;;;7.23;100.00;100914.87;1765192;81;25681;-66
2024/02/29 03:11:35;;;;;;;34.88;18.90;;;;;;;7.25;100.00;100915.43;1765068;81;25563;-66
2024/02/29 03:14:02;;;;;;;32.78;17.77;;;;;;;7.25;100.00;100918.12;1765087;81;25626;-67
2024/02/29 03:16:28;;;;;;;34.25;17.37;;;;;;;7.25;100.00;100919.98;1765176;81;27924;-67
2024/02/29 03:18:57;;;;;;;30.30;17.70;;;;;;;7.25;100.00;100912.73;1757849;81;25599;-66
2024/02/29 03:21:24;;;;;;;32.83;18.20;;;;;;;7.25;100.00;100912.73;1755143;81;25544;-66
2024/02/29 03:23:50;;;;;;;34.83;18.17;;;;;;;7.25;100.00;100911.39;1755089;81;25833;-66
2024/02/29 03:26:17;;;;;;;30.30;18.48;;;;;;;7.25;100.00;100907.36;1755177;81;25444;-66
2024/02/29 03:28:44;;;;;;;29.60;16.27;;;;;;;7.24;100.00;100902.24;1755136;81;28084;-66
2024/02/29 03:31:14;;;;;;;29.72;17.00;;;;;;;7.24;100.00;100904.94;1755005;81;26054;-66
2024/02/29 03:33:42;;;;;;;30.35;16.90;;;;;;;7.23;100.00;100905.45;1755316;81;25479;-66
2024/02/29 03:36:10;;;;;;;31.35;16.65;;;;;;;7.23;100.00;100905.45;1755100;81;25508;-66
2024/02/29 03:38:39;;;;;;;33.28;17.15;;;;;;;7.20;100.00;100903.33;1755139;81;25458;-66
2024/02/29 03:41:06;;;;;;;32.70;17.12;;;;;;;7.19;100.00;100897.66;1755372;81;27329;-66
2024/02/29 03:43:37;;;;;;;32.65;17.60;;;;;;;7.18;100.00;100901.42;1755059;81;25414;-66
2024/02/29 03:46:05;;;;;;;32.50;15.83;;;;;;;7.18;100.00;100899.28;1755164;81;25437;-66
2024/02/29 03:48:31;;;;;;;34.15;17.57;;;;;;;7.17;100.00;100905.20;1755085;81;25442;-66
2024/02/29 03:50:57;;;;;;;33.05;16.52;;;;;;;7.16;100.00;100898.75;1755135;81;25610;-66
2024/02/29 03:53:25;;;;;;;33.30;16.77;;;;;;;7.16;100.00;100902.78;1755123;81;27860;-66
2024/02/29 03:55:51;;;;;;;35.23;16.90;;;;;;;7.15;100.00;100900.64;1755028;81;25762;-66
2024/02/29 03:58:18;;;;;;;33.15;17.10;;;;;;;7.15;100.00;100893.09;1755129;81;25556;-66
2024/02/29 04:00:48;;;;;;;30.02;16.00;;;;;;;7.15;100.00;100892.57;1755038;81;26110;-66
2024/02/29 04:03:16;;;;;;;31.33;17.20;;;;;;;7.14;100.00;100886.91;1755504;81;25411;-66
2024/02/29 04:05:43;;;;;;;33.70;16.93;;;;;;;7.14;100.00;100884.77;1755286;81;27312;-67
2024/02/29 04:08:12;;;;;;;34.83;15.98;;;;;;;7.13;100.00;100888.52;1755252;81;25623;-66
2024/02/29 04:10:48;;;;;;;35.08;16.67;;;;;;;7.09;100.00;100880.98;1755339;81;25659;-66
2024/02/29 04:13:11;;;;;;;28.25;16.23;;;;;;;7.09;100.00;100877.50;1754458;81;25795;-65
2024/02/29 04:15:37;;;;;;;30.10;14.78;;;;;;;7.07;100.00;100879.11;1755417;81;25220;-66
2024/02/29 04:18:06;;;;;;;30.95;14.93;;;;;;;7.06;100.00;100880.73;1755096;81;27404;-66
2024/02/29 04:20:34;;;;;;;28.98;14.15;;;;;;;7.04;100.00;100889.06;1755115;81;25405;-66
2024/02/29 04:23:01;;;;;;;26.15;13.28;;;;;;;7.03;100.00;100890.16;1755084;81;25457;-66
2024/02/29 04:25:28;;;;;;;25.50;13.35;;;;;;;7.03;100.00;100894.20;1755023;81;25664;-67
2024/02/29 04:27:54;;;;;;;25.30;14.15;;;;;;;7.01;100.00;100897.67;1755162;81;25446;-67
2024/02/29 04:30:22;;;;;;;23.45;12.78;;;;;;;7.03;100.00;100894.71;1755091;81;27892;-67
2024/02/29 04:32:50;;;;;;;26.30;13.13;;;;;;;7.04;100.00;100889.61;1755001;81;25482;-66
2024/02/29 04:35:17;;;;;;;23.92;12.43;;;;;;;7.06;100.00;100891.48;1755092;81;25604;-65
2024/02/29 04:37:43;;;;;;;23.65;12.55;;;;;;;7.05;100.00;100891.23;1755065;81;25748;-65
2024/02/29 04:40:11;;;;;;;26.85;13.38;;;;;;;7.06;100.00;100890.14;1755094;81;25442;-65
2024/02/29 04:42:41;;;;;;;21.68;12.15;;;;;;;7.05;100.00;100888.55;1755074;81;27756;-65
2024/02/29 04:45:10;;;;;;;23.80;12.50;;;;;;;7.03;100.00;100892.85;1754898;81;25533;-65
2024/02/29 04:47:36;;;;;;;;;;;;;;;7.02;100.00;100895.81;1757739;81;25626;-66
2024/02/29 04:50:05;;;;;;;24.85;13.15;;;;;;;7.00;100.00;100896.59;1755090;80;25560;-66
2024/02/29 04:52:32;;;;;;;23.83;13.35;;;;;;;7.01;100.00;100903.59;1755306;81;25640;-66
2024/02/29 04:54:58;;;;;;;27.15;13.53;;;;;;;7.01;100.00;100907.08;1755073;81;27927;-67
2024/02/29 04:57:27;;;;;;;27.07;13.53;;;;;;;7.01;100.00;100908.97;1754977;81;25682;-67
2024/02/29 04:59:56;;;;;;;24.95;13.40;;;;;;;7.01;100.00;100909.77;1755068;81;25485;-67
2024/02/29 05:02:23;;;;;;;21.95;12.33;;;;;;;7.00;100.00;100899.28;1755190;81;25642;-67
2024/02/29 05:04:49;;;;;;;23.47;12.05;;;;;;;6.99;100.00;100899.03;1755109;81;25482;-66
2024/02/29 05:07:16;;;;;;;21.42;12.13;;;;;;;6.99;100.00;100896.34;1755079;81;28410;-66
2024/02/29 05:09:44;;;;;;;23.95;12.55;;;;;;;7.01;100.00;100905.73;1754969;81;26054;-66
2024/02/29 05:12:11;;;;;;;22.27;12.45;;;;;;;7.01;100.00;100909.77;1755116;81;25408;-66
2024/02/29 05:14:38;;;;;;;23.75;12.88;;;;;;;7.01;100.00;100907.08;1755058;81;25453;-66
2024/02/29 05:17:06;;;;;;;24.70;12.47;;;;;;;7.03;100.00;100911.68;1755168;81;25528;-67
2024/02/29 05:19:32;;;;;;;22.02;12.55;;;;;;;7.03;100.00;100910.33;1755235;81;27269;-66
2024/02/29 05:21:58;;;;;;;28.02;13.95;;;;;;;7.03;100.00;100911.68;1755215;81;25625;-66
2024/02/29 05:24:24;;;;;;;25.55;13.25;;;;;;;7.04;100.00;100915.17;1755370;81;25369;-66
2024/02/29 05:26:50;;;;;;;22.30;12.78;;;;;;;7.03;100.00;100918.41;1755336;81;25631;-66
2024/02/29 05:29:18;;;;;;;25.32;13.75;;;;;;;7.02;100.00;100923.50;1755113;81;25625;-66
2024/02/29 05:31:53;;;;;;;24.12;13.85;;;;;;;7.02;100.00;100922.16;1755078;81;27329;-67
2024/02/29 05:34:27;;;;;;;29.23;14.05;;;;;;;7.04;100.00;100918.66;1754981;81;25570;-67
2024/02/29 05:36:51;;;;;;;25.48;12.95;;;;;;;7.05;100.00;100917.59;1753384;81;25404;-67
2024/02/29 05:39:20;;;;;;;28.75;13.85;;;;;;;7.04;100.00;100922.69;1755154;81;26066;-67
2024/02/29 05:41:47;;;;;;;25.92;13.78;;;;;;;7.06;100.00;100926.45;1755262;81;25416;-67
2024/02/29 05:44:14;;;;;;;23.92;12.68;;;;;;;7.05;100.00;100931.04;1755206;81;27117;-67
2024/02/29 05:46:40;;;;;;;22.98;13.60;;;;;;;7.04;100.00;100940.17;1755145;81;25887;-67
2024/02/29 05:49:07;;;;;;;23.25;12.98;;;;;;;7.04;100.00;100938.83;1755235;81;25651;-68
2024/02/29 05:51:36;;;;;;;24.23;12.55;;;;;;;7.03;100.00;100942.61;1755261;81;25678;-66
2024/02/29 05:54:02;;;;;;;24.50;13.95;;;;;;;7.02;100.00;100942.33;1755259;81;25462;-66
2024/02/29 05:56:29;;;;;;;23.73;13.78;;;;;;;7.00;100.00;100941.80;1755206;81;27303;-67
2024/02/29 05:58:55;;;;;;;24.52;13.18;;;;;;;6.99;100.00;100937.48;1755126;81;25654;-67
2024/02/29 06:01:23;;;;;;;23.25;13.28;;;;;;;7.01;100.00;100945.28;1755207;81;25558;-67
2024/02/29 06:03:51;;;;;;;25.43;14.47;;;;;;;7.00;100.00;100939.11;1755148;81;26173;-66
2024/02/29 06:06:17;;;;;;;22.07;13.25;;;;;;;7.01;100.00;100943.39;1755236;81;25614;-69
2024/02/29 06:08:43;;;;;;;21.62;12.60;;;;;;;7.02;100.00;100946.91;1755249;81;27319;-66
2024/02/29 06:11:14;;;;;;;23.67;13.45;;;;;;;7.02;100.00;100942.33;1755123;81;25557;-66
2024/02/29 06:13:43;;;;;;;21.70;12.55;;;;;;;7.05;100.00;100947.18;1755173;81;25405;-66
2024/02/29 06:16:13;;;;;;;25.90;14.50;;;;;;;7.05;100.00;100945.03;1755203;81;25810;-66
2024/02/29 06:18:42;;;;;;;23.32;13.50;;;;;;;7.07;100.00;100942.88;1757624;81;25561;-66
2024/02/29 06:21:09;;;;;;;23.98;13.40;;;;;;;7.08;100.00;100947.16;1765267;81;27321;-66
2024/02/29 06:23:37;;;;;;;25.60;13.15;;;;;;;7.10;100.00;100949.88;1764781;80;25607;-66
2024/02/29 06:26:05;;;;;;;22.65;12.30;;;;;;;7.11;100.00;100953.36;1764108;80;25623;-65
2024/02/29 06:28:31;;;;;;;24.57;13.20;;;;;;;7.13;100.00;100948.51;1764317;81;25952;-66
2024/02/29 06:30:58;;;;;;;25.10;13.68;;;;;;;7.16;100.00;100953.36;1765305;81;25374;-65
2024/02/29 06:33:25;;;;;;;24.27;13.25;;;;;;;7.19;100.00;100956.06;1765168;80;27340;-66
2024/02/29 06:35:52;;;;;;;23.73;13.95;;;;;;;7.21;100.00;100947.97;1765078;81;25603;-66
2024/02/29 06:38:19;;;;;;;25.82;13.68;;;;;;;7.24;100.00;100950.67;1765179;80;25542;-66
2024/02/29 06:40:47;;;;;;;22.82;13.15;;;;;;;7.27;100.00;100950.11;1765106;81;25477;-67
2024/02/29 06:43:13;;;;;;;27.73;14.85;;;;;;;7.31;100.00;100953.09;1765166;81;25402;-66
2024/02/29 06:45:47;;;;;;;24.57;14.30;;;;;;;7.32;100.00;100950.14;1765151;81;27045;-66
2024/02/29 06:48:17;;;;;;;29.07;14.65;;;;;;;7.33;100.00;100950.39;1765118;81;25634;-66
2024/02/29 06:50:45;;;;;;;;;;;;;;;7.36;100.00;100945.02;1767791;81;25453;-66
2024/02/29 06:53:14;;;;;;;24.18;13.20;;;;;;;7.39;100.00;100947.97;1765121;81;25387;-66
2024/02/29 06:55:40;;;;;;;26.23;14.10;;;;;;;7.42;100.00;100953.33;1765372;81;25559;-66
2024/02/29 06:58:06;;;;;;;27.48;14.10;;;;;;;7.44;100.00;100951.17;1765035;81;27330;-65
2024/02/29 07:00:34;;;;;;;27.80;15.30;;;;;;;7.47;100.00;100953.33;1765032;81;25726;-66
2024/02/29 07:03:01;;;;;;;30.37;14.15;;;;;;;7.50;100.00;100953.34;1765113;81;25405;-66
2024/02/29 07:05:31;;;;;;;22.37;13.80;;;;;;;7.52;100.00;100953.31;1765040;81;25549;-66
2024/02/29 07:07:57;;;;;;;26.70;14.80;;;;;;;7.54;100.00;100957.88;1765147;81;25391;-69
2024/02/29 07:10:23;;;;;;;26.57;14.55;;;;;;;7.55;100.00;100958.71;1765116;80;27695;-66
2024/02/29 07:12:49;;;;;;;27.85;15.72;;;;;;;7.56;100.00;100959.79;1765029;80;25898;-66
2024/02/29 07:15:17;;;;;;;29.65;15.78;;;;;;;7.59;100.00;100963.81;1765149;81;25590;-66
2024/02/29 07:17:44;;;;;;;41.15;16.65;;;;;;;7.60;100.00;100958.70;1765046;81;25973;-66
2024/02/29 07:20:16;;;;;;;30.82;15.95;;;;;;;7.63;100.00;100959.51;1765043;80;25566;-65
2024/02/29 07:22:43;;;;;;;32.65;16.77;;;;;;;7.65;100.00;100956.80;1765273;81;27451;-66
2024/02/29 07:25:12;;;;;;;30.32;16.07;;;;;;;7.67;100.00;100957.32;1765016;81;25465;-66
2024/02/29 07:27:45;;;;;;;27.90;15.98;;;;;;;7.70;100.00;100958.67;1765135;81;25613;-66
2024/02/29 07:30:15;;;;;;;28.50;15.70;;;;;;;7.74;100.00;100957.59;1765167;81;25851;-66
2024/02/29 07:32:41;;;;;;;27.93;14.97;;;;;;;7.76;100.00;100958.91;1765388;81;25629;-67
2024/02/29 07:35:11;;;;;;;29.20;15.32;;;;;;;7.80;100.00;100953.81;1765129;81;27686;-67
2024/02/29 07:37:38;;;;;;;28.77;15.18;;;;;;;7.81;100.00;100951.37;1764956;79;25709;-66
2024/02/29 07:40:07;;;;;;;27.15;15.32;;;;;;;7.86;100.00;100962.13;1765054;81;25614;-65
2024/02/29 07:42:34;;;;;;;26.23;14.93;;;;;;;7.89;100.00;100964.27;1765319;81;25587;-66
2024/02/29 07:45:00;;;;;;;27.65;14.87;;;;;;;7.88;100.00;100968.03;1765117;80;25595;-66
2024/02/29 07:47:27;;;;;;;25.75;14.20;;;;;;;7.88;100.00;100969.38;1765100;81;27357;-66
2024/02/29 07:49:53;;;;;;;28.23;14.93;;;;;;;7.90;100.00;100969.94;1764984;81;25564;-65
2024/02/29 07:52:19;;;;;;;25.08;15.18;;;;;;;7.90;100.00;100967.77;1765110;80;25642;-66
2024/02/29 07:54:48;;;;;;;32.03;17.27;;;;;;;7.90;100.00;100966.42;1765020;81;25465;-66
2024/02/29 07:57:16;;;;;;;34.40;16.95;;;;;;;7.90;100.00;100967.25;1765131;81;25388;-66
2024/02/29 07:59:43;;;;;;;37.75;17.07;;;;;;;7.92;100.00;100967.77;1765077;81;27184;-66
2024/02/29 08:02:09;;;;;;;29.98;16.57;;;;;;;7.95;100.00;100970.44;1765023;81;25637;-67
2024/02/29 08:04:36;;;;;;;27.17;16.10;;;;;;;7.95;100.00;100972.62;1765083;81;25643;-67
2024/02/29 08:07:06;;;;;;;30.17;15.75;;;;;;;7.96;100.00;100967.48;1765090;79;26112;-67
2024/02/29 08:09:34;;;;;;;30.05;15.83;;;;;;;7.95;100.00;100969.92;1765241;81;25404;-66
2024/02/29 08:12:03;;;;;;;30.48;15.95;;;;;;;7.99;100.00;100975.56;1765077;81;27340;-66
2024/02/29 08:14:31;;;;;;;35.65;16.45;;;;;;;8.02;100.00;100972.33;1764977;80;25472;-66
2024/02/29 08:16:59;;;;;;;30.40;16.42;;;;;;;8.04;100.00;100979.04;1765102;81;25582;-66
2024/02/29 08:19:25;;;;;;;31.60;15.25;;;;;;;8.07;100.00;100979.56;1761873;80;25584;-66
2024/02/29 08:21:53;;;;;;;39.00;19.12;;;;;;;8.08;100.00;100971.20;1755088;81;25645;-65
2024/02/29 08:24:19;;;;;;;30.50;15.98;;;;;;;8.11;100.00;100971.22;1755126;81;27402;-66
2024/02/29 08:26:46;;;;;;;35.13;17.00;;;;;;;8.14;100.00;100973.33;1755064;81;25537;-67
2024/02/29 08:29:16;;;;;;;35.13;19.20;;;;;;;8.15;100.00;100975.76;1755063;81;25616;-66
2024/02/29 08:31:44;;;;;;;34.10;17.57;;;;;;;8.17;100.00;100974.14;1754782;81;25464;-66
2024/02/29 08:34:12;;;;;;;40.55;19.07;;;;;;;8.19;100.00;100974.69;1755307;81;25410;-67
2024/02/29 08:36:38;;;;;;;34.78;18.32;;;;;;;8.20;100.00;100977.08;1755079;81;27233;-66
2024/02/29 08:39:05;;;;;;;34.78;18.60;;;;;;;8.23;100.00;100976.53;1755039;81;25557;-67
2024/02/29 08:41:31;;;;;;;42.00;19.85;;;;;;;8.25;100.00;100970.08;1755064;81;25478;-66
2024/02/29 08:43:57;;;;;;;33.85;18.05;;;;;;;8.28;100.00;100970.88;1755065;81;25454;-67
2024/02/29 08:46:24;;;;;;;43.92;19.67;;;;;;;8.29;100.00;100969.77;1755097;81;25631;-67
2024/02/29 08:48:50;;;;;;;37.58;18.15;;;;;;;8.30;100.00;100968.16;1755128;81;27363;-67
2024/02/29 08:51:17;;;;;;;35.92;18.87;;;;;;;8.34;100.00;100968.41;1755021;81;25556;-67
2024/02/29 08:53:43;;;;;;;69.00;38.15;;;;;;;8.36;100.00;100968.92;1755102;81;25390;-65
2024/02/29 08:56:09;;;;;;;45.52;23.02;;;;;;;8.40;100.00;100967.30;1755036;81;25648;-64
2024/02/29 08:58:35;;;;;;;47.85;24.32;;;;;;;8.45;100.00;100963.27;1755135;81;25444;-64
2024/02/29 09:01:02;;;;;;;37.10;18.73;;;;;;;8.49;100.00;100964.31;1755041;81;27172;-65
2024/02/29 09:03:28;;;;;;;38.55;19.98;;;;;;;8.53;100.00;100959.98;1755007;81;25737;-66
2024/02/29 09:05:56;;;;;;;40.75;20.17;;;;;;;8.57;100.00;100957.54;1755077;81;25658;-65
2024/02/29 09:08:22;;;;;;;40.03;18.82;;;;;;;8.60;100.00;100959.13;1755074;81;25574;-64
2024/02/29 09:10:52;;;;;;;40.65;17.62;;;;;;;8.60;100.00;100958.33;1755086;81;25581;-65
2024/02/29 09:13:18;;;;;;;38.85;19.52;;;;;;;8.61;100.00;100958.58;1755219;81;27264;-65
2024/02/29 09:15:44;;;;;;;41.20;18.77;;;;;;;8.62;99.95;100963.45;1755149;81;25628;-64
2024/02/29 09:18:10;;;;;;;45.92;20.37;;;;;;;8.63;99.69;100965.05;1754588;81;25533;-64
2024/02/29 09:20:36;;;;;;;42.80;20.48;;;;;;;8.64;99.60;100965.32;1753817;81;25686;-63
2024/02/29 09:23:04;;;;;;;44.58;19.92;;;;;;;8.63;99.32;100967.19;1754543;81;25722;-65
2024/02/29 09:25:30;;;;;;;38.08;19.17;;;;;;;8.64;99.36;100970.71;1755256;81;27678;-66
2024/02/29 09:27:57;;;;;;;44.35;19.32;;;;;;;8.64;99.20;100968.81;1755137;81;25393;-64
2024/02/29 09:30:23;;;;;;;39.58;19.30;;;;;;;8.65;99.37;100968.27;1755258;81;25553;-66
2024/02/29 09:32:52;;;;;;;41.20;20.15;;;;;;;8.65;99.31;100968.27;1755210;81;25664;-65
2024/02/29 09:35:20;;;;;;;40.58;19.17;;;;;;;8.65;99.10;100971.78;1755273;81;25588;-65
2024/02/29 09:37:48;;;;;;;46.83;19.62;;;;;;;8.66;99.31;100973.93;1755272;81;27395;-65
2024/02/29 09:40:37;;;;;;;42.95;18.85;;;;;;;8.64;99.23;100978.25;1755148;81;25405;-65
2024/02/29 09:43:05;;;;;;;50.28;21.25;;;;;;;8.66;99.20;100978.77;1646386;87;25621;-65
2024/02/29 09:45:34;;;;;;;44.42;18.48;;;;;;;8.66;99.41;100970.68;1643498;87;25727;-64
2024/02/29 09:48:05;;;;;;;42.98;19.30;;;;;;;8.68;99.43;100962.31;1646671;87;25550;-64
2024/02/29 09:50:32;;;;;;;48.30;20.92;;;;;;;8.69;99.42;100961.24;1643690;87;27360;-66
2024/02/29 09:53:01;;;;;;;39.85;18.07;;;;;;;8.70;99.57;100965.53;1646409;87;25469;-65
2024/02/29 09:55:30;;;;;;;41.18;17.57;;;;;;;8.73;99.21;100966.33;1643781;87;25510;-65
2024/02/29 09:57:59;;;;;;;;;;;;;;;8.75;98.83;100968.20;1648898;87;25481;-64
2024/02/29 10:00:27;;;;;;;58.85;39.15;;;;;;;8.73;98.39;100971.17;1624704;87;25484;-65
2024/02/29 10:02:56;;;;;;;44.98;18.50;;;;;;;8.69;98.24;100970.13;1646457;87;27353;-65
2024/02/29 10:05:23;;;;;;;45.35;18.70;;;;;;;8.70;98.73;100973.63;1646521;87;25558;-64
2024/02/29 10:07:51;;;;;;;42.78;18.27;;;;;;;8.72;99.01;100967.43;1687919;84;25503;-65
2024/02/29 10:10:18;;;;;;;46.42;18.52;;;;;;;8.72;98.92;100964.18;1705555;84;25441;-65
2024/02/29 10:12:55;;;;;;;43.58;17.73;;;;;;;8.73;99.08;100960.94;1726608;83;25430;-65
2024/02/29 10:15:27;;;;;;;50.83;20.45;;;;;;;8.73;99.07;100964.98;1734950;82;27382;-65
2024/02/29 10:17:56;;;;;;;51.30;19.82;;;;;;;8.74;99.30;100964.70;1733950;82;25440;-65
2024/02/29 10:20:22;;;;;;;49.55;20.37;;;;;;;8.76;99.63;100964.42;1734905;82;25464;-64
2024/02/29 10:22:49;;;;;;;45.23;20.12;;;;;;;8.78;99.76;100956.33;1734876;82;25494;-63
2024/02/29 10:25:15;;;;;;;49.90;21.55;;;;;;;8.82;99.42;100958.44;1734958;82;25476;-63
2024/02/29 10:27:43;;;;;;;52.03;22.55;;;;;;;8.84;99.54;100957.64;1734914;82;28012;-65
2024/02/29 10:30:17;;;;;;;47.15;22.95;;;;;;;8.85;100.00;100953.84;1734824;82;25414;-65
2024/02/29 10:32:45;;;;;;;43.52;21.02;;;;;;;8.90;99.89;100955.16;1734956;82;25418;-64
2024/02/29 10:35:22;;;;;;;46.67;22.43;;;;;;;8.91;99.83;100952.73;1735114;82;26141;-64
2024/02/29 10:37:51;;;;;;;48.92;22.90;;;;;;;8.92;99.72;100947.58;1733909;82;25412;-64
2024/02/29 10:40:17;;;;;;;48.63;21.93;;;;;;;8.94;99.95;100941.38;1735053;82;27378;-65
2024/02/29 10:42:48;;;;;;;51.00;23.45;;;;;;;8.97;100.00;100947.02;1731966;82;25474;-63
2024/02/29 10:45:15;;;;;;;50.10;21.45;;;;;;;8.97;99.77;100939.44;1730513;82;25440;-65
2024/02/29 10:47:57;;;;;;;49.05;20.72;;;;;;;8.96;99.97;100938.64;1731464;82;25472;-65
2024/02/29 10:50:25;;;;;;;44.23;20.90;;;;;;;9.00;100.00;100933.48;1731587;82;25501;-66
2024/02/29 10:52:57;;;;;;;52.83;21.73;;;;;;;9.05;99.98;100933.44;1731504;82;26799;-65
2024/02/29 10:55:27;;;;;;;44.27;20.82;;;;;;;9.09;99.92;100927.76;1724003;82;25872;-66
2024/02/29 10:58:07;;;;;;;48.60;19.20;;;;;;;9.08;99.45;100919.95;1731564;82;25496;-67
2024/02/29 11:00:34;;;;;;;42.53;19.57;;;;;;;9.13;99.98;100926.09;1731173;82;25988;-64
2024/02/29 11:03:01;;;;;;;46.70;20.88;;;;;;;9.21;100.00;100919.29;1731534;82;25507;-63
2024/02/29 11:05:28;;;;;;;43.92;20.27;;;;;;;9.26;100.00;100913.02;1731510;82;27312;-64
2024/02/29 11:07:54;;;;;;;46.40;20.02;;;;;;;9.32;100.00;100906.48;1731432;82;25442;-65
2024/02/29 11:10:21;;;;;;;44.88;19.30;;;;;;;9.37;99.85;100899.69;1700732;82;25586;-64
2024/02/29 11:12:49;;;;;;;43.33;20.20;;;;;;;9.38;99.25;100899.96;1731471;82;25972;-64